Capitol Logistics 617


KMIA
Miami International Airport
Miami, Florida, US
MPTO
General Omar Torrijos International Airport
Panama City, , PA

Route Details

Aircraft Information
Primary: Boeing 767-300BDSF
Backup: Boeing 757-200SF
Route Data
Distance: 1007nm
Sched. Duration: 2h 29m
Avg. Duration: 2h 38m (+9m)
Times Flown: 7
Recm'd Route: EONNS2 EONNS A509 URSUS UA301 UCA UG437 MARMA OSUPA
Planned Altitude: 35,000ft
Origin Wx: KMIA 181653Z 11012G20KT 10SM BKN024 BKN050 BKN250 27/20 A3017 RMK AO2 SLP216 T02720200
Dest. Wx: MPTO 181700Z 34009KT 9999 FEW018 SCT060 31/22 Q1009 NOSIG
Notes:

Financial History
Total Freight: 699,468lbs
Average Load: 99,924lbs/flt
Fuel Used: 207,526lbs
Avg. Fuel Used: 29,647lbs/flt
Fuel Expense: $255,257
Avg. Fuel Expense: $36,465
Avg. Fuel Cost: $1.23/lbs
Total Gross Income: $1,286,575
Pilot Pay: $1,073
Total Expenses: $139,314
Total Revenue: $888,700
Average Revenue: $183,796.39